sensor_id;sensor_type;location;lat;lon;timestamp;pressure;altitude;pressure_sealevel;temperature;humidity
70976;BME280;58635;51.198;6.010;2023-05-16T00:00:53;101625.03;;;15.53;53.36
70976;BME280;58635;51.198;6.010;2023-05-16T00:03:19;101626.84;;;15.53;53.33
70976;BME280;58635;51.198;6.010;2023-05-16T00:05:45;101627.84;;;15.52;53.24
70976;BME280;58635;51.198;6.010;2023-05-16T00:08:11;101633.06;;;15.52;53.19
70976;BME280;58635;51.198;6.010;2023-05-16T00:10:36;101633.44;;;15.48;53.23
70976;BME280;58635;51.198;6.010;2023-05-16T00:13:02;101629.25;;;15.47;53.37
70976;BME280;58635;51.198;6.010;2023-05-16T00:15:28;101638.28;;;15.45;53.13
70976;BME280;58635;51.198;6.010;2023-05-16T00:17:55;101627.25;;;15.43;53.09
70976;BME280;58635;51.198;6.010;2023-05-16T00:20:24;101639.06;;;15.39;53.05
70976;BME280;58635;51.198;6.010;2023-05-16T00:22:51;101636.28;;;15.34;53.12
70976;BME280;58635;51.198;6.010;2023-05-16T00:25:16;101631.28;;;15.32;53.17
70976;BME280;58635;51.198;6.010;2023-05-16T00:27:42;101635.09;;;15.30;53.47
70976;BME280;58635;51.198;6.010;2023-05-16T00:30:08;101636.91;;;15.29;53.36
70976;BME280;58635;51.198;6.010;2023-05-16T00:32:35;101642.94;;;15.30;53.25
70976;BME280;58635;51.198;6.010;2023-05-16T00:35:00;101635.69;;;15.25;53.21
70976;BME280;58635;51.198;6.010;2023-05-16T00:37:26;101636.91;;;15.23;53.24
70976;BME280;58635;51.198;6.010;2023-05-16T00:39:51;101636.13;;;15.22;53.19
70976;BME280;58635;51.198;6.010;2023-05-16T00:42:20;101648.34;;;15.21;53.04
70976;BME280;58635;51.198;6.010;2023-05-16T00:44:46;101635.13;;;15.16;53.20
70976;BME280;58635;51.198;6.010;2023-05-16T00:47:12;101646.94;;;15.12;53.08
70976;BME280;58635;51.198;6.010;2023-05-16T00:49:37;101642.16;;;15.09;53.16
70976;BME280;58635;51.198;6.010;2023-05-16T00:52:04;101641.13;;;15.10;53.19
70976;BME280;58635;51.198;6.010;2023-05-16T00:54:30;101645.53;;;15.10;53.06
70976;BME280;58635;51.198;6.010;2023-05-16T00:56:56;101645.75;;;15.08;52.95
70976;BME280;58635;51.198;6.010;2023-05-16T00:59:24;101637.13;;;15.08;53.11
70976;BME280;58635;51.198;6.010;2023-05-16T01:01:50;101643.34;;;15.07;52.59
70976;BME280;58635;51.198;6.010;2023-05-16T01:04:17;101648.97;;;15.04;52.86
70976;BME280;58635;51.198;6.010;2023-05-16T01:06:43;101638.56;;;15.04;52.82
70976;BME280;58635;51.198;6.010;2023-05-16T01:09:13;101654.97;;;15.04;52.87
70976;BME280;58635;51.198;6.010;2023-05-16T01:14:53;101640.75;;;15.00;52.62
70976;BME280;58635;51.198;6.010;2023-05-16T01:27:58;101663.38;;;15.00;52.82
70976;BME280;58635;51.198;6.010;2023-05-16T01:30:25;101651.97;;;15.01;53.03
70976;BME280;58635;51.198;6.010;2023-05-16T01:32:50;101647.56;;;15.01;52.78
70976;BME280;58635;51.198;6.010;2023-05-16T01:35:16;101652.16;;;14.99;52.81
70976;BME280;58635;51.198;6.010;2023-05-16T01:37:53;101657.59;;;14.98;52.73
70976;BME280;58635;51.198;6.010;2023-05-16T01:40:39;101659.78;;;14.94;52.79
70976;BME280;58635;51.198;6.010;2023-05-16T01:43:12;101660.16;;;14.91;52.80
70976;BME280;58635;51.198;6.010;2023-05-16T01:45:43;101676.00;;;14.89;52.91
70976;BME280;58635;51.198;6.010;2023-05-16T01:48:22;101670.00;;;14.89;52.59
70976;BME280;58635;51.198;6.010;2023-05-16T01:50:54;101671.00;;;14.88;52.72
70976;BME280;58635;51.198;6.010;2023-05-16T01:53:27;101672.81;;;14.87;52.71
70976;BME280;58635;51.198;6.010;2023-05-16T01:55:59;101678.22;;;14.86;52.70
70976;BME280;58635;51.198;6.010;2023-05-16T01:58:29;101677.03;;;14.82;52.80
70976;BME280;58635;51.198;6.010;2023-05-16T02:01:03;101680.00;;;14.79;52.92
70976;BME280;58635;51.198;6.010;2023-05-16T02:03:30;101677.00;;;14.75;52.71
70976;BME280;58635;51.198;6.010;2023-05-16T02:05:56;101684.22;;;14.73;52.57
70976;BME280;58635;51.198;6.010;2023-05-16T02:08:22;101685.63;;;14.69;52.72
70976;BME280;58635;51.198;6.010;2023-05-16T02:10:48;101686.78;;;14.67;52.60
70976;BME280;58635;51.198;6.010;2023-05-16T02:13:13;101683.78;;;14.63;52.68
70976;BME280;58635;51.198;6.010;2023-05-16T02:15:39;101691.22;;;14.59;52.88
70976;BME280;58635;51.198;6.010;2023-05-16T02:18:04;101692.56;;;14.55;52.76
70976;BME280;58635;51.198;6.010;2023-05-16T02:20:30;101702.38;;;14.53;52.73
70976;BME280;58635;51.198;6.010;2023-05-16T02:22:55;101705.59;;;14.49;52.87
70976;BME280;58635;51.198;6.010;2023-05-16T02:25:21;101707.59;;;14.47;53.16
70976;BME280;58635;51.198;6.010;2023-05-16T02:27:46;101713.34;;;14.42;52.81
70976;BME280;58635;51.198;6.010;2023-05-16T02:30:12;101710.94;;;14.41;53.03
70976;BME280;58635;51.198;6.010;2023-05-16T02:32:38;101712.94;;;14.39;52.85
70976;BME280;58635;51.198;6.010;2023-05-16T02:35:04;101722.94;;;14.35;53.05
70976;BME280;58635;51.198;6.010;2023-05-16T02:37:29;101716.13;;;14.34;52.94
70976;BME280;58635;51.198;6.010;2023-05-16T02:39:55;101727.72;;;14.31;52.90
70976;BME280;58635;51.198;6.010;2023-05-16T02:42:20;101724.91;;;14.26;52.94
70976;BME280;58635;51.198;6.010;2023-05-16T02:44:45;101722.91;;;14.22;52.85
70976;BME280;58635;51.198;6.010;2023-05-16T02:47:11;101730.06;;;14.20;52.85
70976;BME280;58635;51.198;6.010;2023-05-16T02:49:36;101735.47;;;14.18;52.96
70976;BME280;58635;51.198;6.010;2023-05-16T02:52:02;101740.88;;;14.17;52.84
70976;BME280;58635;51.198;6.010;2023-05-16T02:54:27;101742.88;;;14.15;53.01
70976;BME280;58635;51.198;6.010;2023-05-16T02:56:53;101743.25;;;14.12;53.08
70976;BME280;58635;51.198;6.010;2023-05-16T02:59:18;101740.84;;;14.10;52.92
70976;BME280;58635;51.198;6.010;2023-05-16T03:01:44;101735.03;;;14.08;53.14
70976;BME280;58635;51.198;6.010;2023-05-16T03:04:10;101742.22;;;14.06;53.14
70976;BME280;58635;51.198;6.010;2023-05-16T03:06:35;101735.63;;;14.03;53.45
70976;BME280;58635;51.198;6.010;2023-05-16T03:09:00;101749.00;;;14.00;53.40
70976;BME280;58635;51.198;6.010;2023-05-16T03:11:26;101751.16;;;13.97;53.24
70976;BME280;58635;51.198;6.010;2023-05-16T03:13:53;101753.97;;;13.95;53.29
70976;BME280;58635;51.198;6.010;2023-05-16T03:16:18;101752.56;;;13.93;53.28
70976;BME280;58635;51.198;6.010;2023-05-16T03:18:43;101749.34;;;13.91;53.12
70976;BME280;58635;51.198;6.010;2023-05-16T03:21:09;101752.34;;;13.88;53.50
70976;BME280;58635;51.198;6.010;2023-05-16T03:23:34;101756.75;;;13.87;53.46
70976;BME280;58635;51.198;6.010;2023-05-16T03:26:00;101754.34;;;13.86;53.52
70976;BME280;58635;51.198;6.010;2023-05-16T03:28:27;101750.94;;;13.85;53.51
70976;BME280;58635;51.198;6.010;2023-05-16T03:30:52;101752.91;;;13.83;53.53
70976;BME280;58635;51.198;6.010;2023-05-16T03:33:18;101750.50;;;13.82;53.61
70976;BME280;58635;51.198;6.010;2023-05-16T03:35:44;101762.69;;;13.81;53.51
70976;BME280;58635;51.198;6.010;2023-05-16T03:38:10;101769.06;;;13.79;53.54
70976;BME280;58635;51.198;6.010;2023-05-16T03:40:35;101768.66;;;13.75;53.63
70976;BME280;58635;51.198;6.010;2023-05-16T03:43:01;101767.06;;;13.74;53.75
70976;BME280;58635;51.198;6.010;2023-05-16T03:45:28;101770.63;;;13.73;53.82
70976;BME280;58635;51.198;6.010;2023-05-16T03:47:54;101771.63;;;13.72;53.75
70976;BME280;58635;51.198;6.010;2023-05-16T03:50:20;101775.22;;;13.71;54.11
70976;BME280;58635;51.198;6.010;2023-05-16T03:52:45;101778.81;;;13.70;54.20
70976;BME280;58635;51.198;6.010;2023-05-16T03:55:10;101785.00;;;13.69;54.34
70976;BME280;58635;51.198;6.010;2023-05-16T03:57:39;101786.81;;;13.68;54.26
70976;BME280;58635;51.198;6.010;2023-05-16T04:00:08;101783.41;;;13.68;54.43
70976;BME280;58635;51.198;6.010;2023-05-16T04:02:37;101795.97;;;13.64;54.38
70976;BME280;58635;51.198;6.010;2023-05-16T04:05:06;101793.75;;;13.61;54.52
70976;BME280;58635;51.198;6.010;2023-05-16T04:07:32;101799.13;;;13.60;54.43
70976;BME280;58635;51.198;6.010;2023-05-16T04:09:57;101808.09;;;13.57;54.57
70976;BME280;58635;51.198;6.010;2023-05-16T04:12:22;101804.91;;;13.55;54.74
70976;BME280;58635;51.198;6.010;2023-05-16T04:14:48;101801.88;;;13.52;54.81
70976;BME280;58635;51.198;6.010;2023-05-16T04:17:13;101817.28;;;13.53;54.87
70976;BME280;58635;51.198;6.010;2023-05-16T04:19:38;101816.47;;;13.53;55.19
70976;BME280;58635;51.198;6.010;2023-05-16T04:22:05;101809.28;;;13.55;54.91
70976;BME280;58635;51.198;6.010;2023-05-16T04:24:30;101812.50;;;13.57;55.02
70976;BME280;58635;51.198;6.010;2023-05-16T04:26:56;101813.13;;;13.59;55.32
70976;BME280;58635;51.198;6.010;2023-05-16T04:29:21;101823.78;;;13.64;55.08
70976;BME280;58635;51.198;6.010;2023-05-16T04:31:47;101820.78;;;13.67;54.88
70976;BME280;58635;51.198;6.010;2023-05-16T04:34:13;101824.00;;;13.69;54.78
70976;BME280;58635;51.198;6.010;2023-05-16T04:36:40;101829.81;;;13.71;54.81
70976;BME280;58635;51.198;6.010;2023-05-16T04:39:06;101827.81;;;13.73;54.86
70976;BME280;58635;51.198;6.010;2023-05-16T04:41:31;101835.28;;;13.76;54.76
70976;BME280;58635;51.198;6.010;2023-05-16T04:44:00;101829.50;;;13.81;54.72
70976;BME280;58635;51.198;6.010;2023-05-16T04:46:28;101836.75;;;13.85;54.55
70976;BME280;58635;51.198;6.010;2023-05-16T04:48:54;101837.78;;;13.91;54.45
70976;BME280;58635;51.198;6.010;2023-05-16T04:51:19;101844.00;;;13.96;54.35
70976;BME280;58635;51.198;6.010;2023-05-16T04:53:44;101844.44;;;14.00;54.21
70976;BME280;58635;51.198;6.010;2023-05-16T04:56:10;101852.66;;;14.03;54.12
70976;BME280;58635;51.198;6.010;2023-05-16T04:58:35;101841.25;;;14.04;54.03
70976;BME280;58635;51.198;6.010;2023-05-16T05:01:00;101840.72;;;14.09;54.10
70976;BME280;58635;51.198;6.010;2023-05-16T05:03:26;101842.94;;;14.12;53.80
70976;BME280;58635;51.198;6.010;2023-05-16T05:05:52;101847.53;;;14.17;53.71
70976;BME280;58635;51.198;6.010;2023-05-16T05:08:17;101852.19;;;14.21;53.70
70976;BME280;58635;51.198;6.010;2023-05-16T05:10:43;101854.41;;;14.24;53.76
70976;BME280;58635;51.198;6.010;2023-05-16T05:13:10;101854.88;;;14.34;53.64
70976;BME280;58635;51.198;6.010;2023-05-16T05:15:35;101858.91;;;14.44;53.48
70976;BME280;58635;51.198;6.010;2023-05-16T05:18:01;101866.19;;;14.55;53.24
70976;BME280;58635;51.198;6.010;2023-05-16T05:20:26;101862.69;;;14.69;52.85
70976;BME280;58635;51.198;6.010;2023-05-16T05:22:53;101866.75;;;14.85;52.78
70976;BME280;58635;51.198;6.010;2023-05-16T05:25:18;101859.78;;;14.92;52.51
70976;BME280;58635;51.198;6.010;2023-05-16T05:27:44;101867.00;;;14.97;52.27
70976;BME280;58635;51.198;6.010;2023-05-16T05:30:10;101868.44;;;15.06;52.23
70976;BME280;58635;51.198;6.010;2023-05-16T05:32:36;101869.44;;;15.11;52.00
70976;BME280;58635;51.198;6.010;2023-05-16T05:35:01;101868.06;;;15.15;51.93
70976;BME280;58635;51.198;6.010;2023-05-16T05:37:28;101877.28;;;15.18;51.81
70976;BME280;58635;51.198;6.010;2023-05-16T05:39:53;101882.09;;;15.21;51.78
70976;BME280;58635;51.198;6.010;2023-05-16T05:42:19;101883.28;;;15.25;51.56
70976;BME280;58635;51.198;6.010;2023-05-16T05:44:44;101882.91;;;15.28;51.48
70976;BME280;58635;51.198;6.010;2023-05-16T05:47:10;101884.53;;;15.29;51.34
70976;BME280;58635;51.198;6.010;2023-05-16T05:49:36;101884.53;;;15.29;51.26
70976;BME280;58635;51.198;6.010;2023-05-16T05:52:01;101885.13;;;15.31;51.20
70976;BME280;58635;51.198;6.010;2023-05-16T05:54:27;101886.31;;;15.29;51.00
70976;BME280;58635;51.198;6.010;2023-05-16T05:56:53;101893.13;;;15.23;50.88
70976;BME280;58635;51.198;6.010;2023-05-16T05:59:18;101897.13;;;15.19;50.92
70976;BME280;58635;51.198;6.010;2023-05-16T06:01:43;101891.53;;;15.29;50.68
70976;BME280;58635;51.198;6.010;2023-05-16T06:04:09;101893.56;;;15.40;50.65
70976;BME280;58635;51.198;6.010;2023-05-16T06:06:36;101901.19;;;15.48;50.45
70976;BME280;58635;51.198;6.010;2023-05-16T06:09:02;101900.22;;;15.56;50.36
70976;BME280;58635;51.198;6.010;2023-05-16T06:11:27;101904.03;;;15.60;50.19
70976;BME280;58635;51.198;6.010;2023-05-16T06:13:53;101905.44;;;15.62;50.21
70976;BME280;58635;51.198;6.010;2023-05-16T06:16:18;101910.06;;;15.73;50.13
70976;BME280;58635;51.198;6.010;2023-05-16T06:18:44;101896.06;;;15.88;49.84
70976;BME280;58635;51.198;6.010;2023-05-16T06:21:10;101901.03;;;16.09;49.50
70976;BME280;58635;51.198;6.010;2023-05-16T06:23:36;101905.22;;;16.36;49.11
70976;BME280;58635;51.198;6.010;2023-05-16T06:26:02;101909.78;;;16.67;48.68
70976;BME280;58635;51.198;6.010;2023-05-16T06:28:28;101905.28;;;16.94;47.66
70976;BME280;58635;51.198;6.010;2023-05-16T06:30:53;101912.25;;;17.07;47.23
70976;BME280;58635;51.198;6.010;2023-05-16T06:33:19;101913.19;;;17.19;46.67
70976;BME280;58635;51.198;6.010;2023-05-16T06:35:45;101913.69;;;17.41;46.29
70976;BME280;58635;51.198;6.010;2023-05-16T06:38:14;101922.41;;;17.60;46.29
70976;BME280;58635;51.198;6.010;2023-05-16T06:40:40;101926.03;;;17.59;45.42
70976;BME280;58635;51.198;6.010;2023-05-16T06:43:05;101917.25;;;17.47;45.58
70976;BME280;58635;51.198;6.010;2023-05-16T06:45:31;101916.31;;;17.35;45.80
70976;BME280;58635;51.198;6.010;2023-05-16T06:47:56;101928.25;;;17.24;45.72
70976;BME280;58635;51.198;6.010;2023-05-16T06:50:22;101926.66;;;17.23;45.58
70976;BME280;58635;51.198;6.010;2023-05-16T06:52:47;101924.00;;;17.30;45.61
70976;BME280;58635;51.198;6.010;2023-05-16T06:55:13;101918.84;;;17.48;45.17
70976;BME280;58635;51.198;6.010;2023-05-16T06:57:38;101924.22;;;17.60;44.50
70976;BME280;58635;51.198;6.010;2023-05-16T07:00:04;101923.19;;;17.61;44.67
70976;BME280;58635;51.198;6.010;2023-05-16T07:02:31;101928.72;;;17.46;44.28
70976;BME280;58635;51.198;6.010;2023-05-16T07:04:57;101924.94;;;17.42;44.32
70976;BME280;58635;51.198;6.010;2023-05-16T07:07:22;101930.50;;;17.52;44.42
70976;BME280;58635;51.198;6.010;2023-05-16T07:09:47;101932.03;;;17.66;43.96
70976;BME280;58635;51.198;6.010;2023-05-16T07:12:13;101931.09;;;17.86;43.71
70976;BME280;58635;51.198;6.010;2023-05-16T07:14:38;101932.41;;;18.01;43.64
70976;BME280;58635;51.198;6.010;2023-05-16T07:17:04;101926.25;;;18.14;43.05
70976;BME280;58635;51.198;6.010;2023-05-16T07:19:30;101925.19;;;18.40;42.89
70976;BME280;58635;51.198;6.010;2023-05-16T07:21:55;101931.25;;;18.59;42.17
70976;BME280;58635;51.198;6.010;2023-05-16T07:24:20;101935.66;;;18.58;42.07
70976;BME280;58635;51.198;6.010;2023-05-16T07:26:46;101934.16;;;18.69;41.70
70976;BME280;58635;51.198;6.010;2023-05-16T07:29:11;101940.19;;;18.69;41.30
70976;BME280;58635;51.198;6.010;2023-05-16T07:31:37;101937.22;;;18.66;41.66
70976;BME280;58635;51.198;6.010;2023-05-16T07:34:02;101942.00;;;18.69;41.26
70976;BME280;58635;51.198;6.010;2023-05-16T07:36:27;101936.66;;;18.57;41.17
70976;BME280;58635;51.198;6.010;2023-05-16T07:38:53;101940.00;;;18.46;41.27
70976;BME280;58635;51.198;6.010;2023-05-16T07:41:18;101940.66;;;18.41;41.26
70976;BME280;58635;51.198;6.010;2023-05-16T07:43:44;101942.94;;;18.56;41.46
70976;BME280;58635;51.198;6.010;2023-05-16T07:46:10;101938.31;;;18.77;41.13
70976;BME280;58635;51.198;6.010;2023-05-16T07:48:35;101936.50;;;18.95;40.88
70976;BME280;58635;51.198;6.010;2023-05-16T07:51:01;101936.88;;;19.11;40.70
70976;BME280;58635;51.198;6.010;2023-05-16T07:53:26;101934.28;;;19.11;40.52
70976;BME280;58635;51.198;6.010;2023-05-16T07:55:52;101937.41;;;19.01;40.51
70976;BME280;58635;51.198;6.010;2023-05-16T07:58:17;101941.00;;;18.88;40.35
70976;BME280;58635;51.198;6.010;2023-05-16T08:00:44;101935.56;;;18.72;40.20
70976;BME280;58635;51.198;6.010;2023-05-16T08:03:09;101938.50;;;18.57;40.33
70976;BME280;58635;51.198;6.010;2023-05-16T08:05:35;101941.41;;;18.49;40.41
70976;BME280;58635;51.198;6.010;2023-05-16T08:08:00;101943.16;;;18.55;40.52
70976;BME280;58635;51.198;6.010;2023-05-16T08:10:26;101941.44;;;18.67;40.10
70976;BME280;58635;51.198;6.010;2023-05-16T08:12:51;101930.38;;;18.83;39.71
70976;BME280;58635;51.198;6.010;2023-05-16T08:15:18;101941.06;;;19.00;39.17
70976;BME280;58635;51.198;6.010;2023-05-16T08:17:43;101929.88;;;19.23;39.05
70976;BME280;58635;51.198;6.010;2023-05-16T08:20:09;101941.00;;;19.48;38.54
70976;BME280;58635;51.198;6.010;2023-05-16T08:22:34;101940.97;;;19.67;38.60
70976;BME280;58635;51.198;6.010;2023-05-16T08:25:00;101939.84;;;19.74;38.22
70976;BME280;58635;51.198;6.010;2023-05-16T08:27:26;101938.78;;;19.64;37.97
70976;BME280;58635;51.198;6.010;2023-05-16T08:29:52;101943.53;;;19.43;37.97
70976;BME280;58635;51.198;6.010;2023-05-16T08:32:17;101937.75;;;19.23;38.41
70976;BME280;58635;51.198;6.010;2023-05-16T08:34:43;101937.41;;;19.01;38.63
70976;BME280;58635;51.198;6.010;2023-05-16T08:37:08;101941.34;;;18.92;38.96
70976;BME280;58635;51.198;6.010;2023-05-16T08:39:35;101940.25;;;18.99;38.78
70976;BME280;58635;51.198;6.010;2023-05-16T08:42:00;101940.53;;;19.10;38.25
70976;BME280;58635;51.198;6.010;2023-05-16T08:44:27;101935.13;;;19.23;37.92
70976;BME280;58635;51.198;6.010;2023-05-16T08:46:53;101939.16;;;19.37;37.83
70976;BME280;58635;51.198;6.010;2023-05-16T08:49:19;101932.69;;;19.51;37.28
70976;BME280;58635;51.198;6.010;2023-05-16T08:51:50;101927.72;;;19.62;37.04
70976;BME280;58635;51.198;6.010;2023-05-16T08:54:16;101935.94;;;19.65;36.74
70976;BME280;58635;51.198;6.010;2023-05-16T08:56:43;101942.66;;;19.61;37.14
70976;BME280;58635;51.198;6.010;2023-05-16T08:59:09;101937.50;;;19.54;36.87
70976;BME280;58635;51.198;6.010;2023-05-16T09:01:36;101946.00;;;19.38;36.84
70976;BME280;58635;51.198;6.010;2023-05-16T09:04:07;101946.31;;;19.30;37.10
70976;BME280;58635;51.198;6.010;2023-05-16T09:06:33;101939.91;;;19.26;37.67
70976;BME280;58635;51.198;6.010;2023-05-16T09:09:00;101944.56;;;19.24;37.70
70976;BME280;58635;51.198;6.010;2023-05-16T09:11:27;101942.75;;;19.24;36.89
70976;BME280;58635;51.198;6.010;2023-05-16T09:13:52;101942.84;;;19.18;36.93
70976;BME280;58635;51.198;6.010;2023-05-16T09:16:19;101950.22;;;19.09;36.11
70976;BME280;58635;51.198;6.010;2023-05-16T09:18:52;101945.94;;;18.96;36.33
70976;BME280;58635;51.198;6.010;2023-05-16T09:21:19;101947.41;;;18.92;36.67
70976;BME280;58635;51.198;6.010;2023-05-16T09:23:48;101947.56;;;18.97;36.88
70976;BME280;58635;51.198;6.010;2023-05-16T09:26:14;101950.88;;;19.05;37.07
70976;BME280;58635;51.198;6.010;2023-05-16T09:28:39;101948.19;;;19.11;36.97
70976;BME280;58635;51.198;6.010;2023-05-16T09:31:24;101944.47;;;19.19;37.09
70976;BME280;58635;51.198;6.010;2023-05-16T09:34:00;101945.44;;;19.18;37.02
70976;BME280;58635;51.198;6.010;2023-05-16T09:36:26;101952.75;;;19.16;37.03
70976;BME280;58635;51.198;6.010;2023-05-16T09:38:52;101946.59;;;19.10;36.95
70976;BME280;58635;51.198;6.010;2023-05-16T09:41:17;101945.06;;;19.03;36.62
70976;BME280;58635;51.198;6.010;2023-05-16T09:43:43;101943.69;;;19.00;36.46
70976;BME280;58635;51.198;6.010;2023-05-16T09:46:16;101946.19;;;18.95;36.09
70976;BME280;58635;51.198;6.010;2023-05-16T09:48:45;101940.56;;;18.91;36.39
70976;BME280;58635;51.198;6.010;2023-05-16T09:51:12;101938.16;;;18.90;36.48
70976;BME280;58635;51.198;6.010;2023-05-16T09:53:39;101935.69;;;18.95;36.27
70976;BME280;58635;51.198;6.010;2023-05-16T09:56:06;101936.53;;;19.07;36.05
70976;BME280;58635;51.198;6.010;2023-05-16T09:58:37;101932.50;;;19.23;35.41
70976;BME280;58635;51.198;6.010;2023-05-16T10:01:04;101930.47;;;19.37;34.95
70976;BME280;58635;51.198;6.010;2023-05-16T10:03:33;101934.72;;;19.49;34.18
70976;BME280;58635;51.198;6.010;2023-05-16T10:05:58;101936.16;;;19.64;34.50
70976;BME280;58635;51.198;6.010;2023-05-16T10:08:25;101925.13;;;19.85;33.52
70976;BME280;58635;51.198;6.010;2023-05-16T10:10:53;101926.75;;;20.09;33.78
70976;BME280;58635;51.198;6.010;2023-05-16T10:13:20;101922.84;;;20.35;33.63
70976;BME280;58635;51.198;6.010;2023-05-16T10:15:48;101937.72;;;20.53;33.29
70976;BME280;58635;51.198;6.010;2023-05-16T10:18:17;101921.34;;;20.63;33.18
70976;BME280;58635;51.198;6.010;2023-05-16T10:20:45;101938.69;;;20.76;33.02
70976;BME280;58635;51.198;6.010;2023-05-16T10:23:16;101926.81;;;20.73;32.87
70976;BME280;58635;51.198;6.010;2023-05-16T10:25:43;101927.38;;;20.75;33.12
70976;BME280;58635;51.198;6.010;2023-05-16T10:28:09;101932.59;;;20.87;33.05
70976;BME280;58635;51.198;6.010;2023-05-16T10:30:36;101938.53;;;20.82;32.89
70976;BME280;58635;51.198;6.010;2023-05-16T10:33:04;101934.69;;;20.73;33.05
70976;BME280;58635;51.198;6.010;2023-05-16T10:35:30;101926.69;;;20.68;33.30
70976;BME280;58635;51.198;6.010;2023-05-16T10:37:57;101927.22;;;20.82;33.22
70976;BME280;58635;51.198;6.010;2023-05-16T10:40:23;101914.03;;;20.93;32.82
70976;BME280;58635;51.198;6.010;2023-05-16T10:43:02;101917.63;;;20.87;32.79
70976;BME280;58635;51.198;6.010;2023-05-16T10:45:29;101906.44;;;20.80;32.42
70976;BME280;58635;51.198;6.010;2023-05-16T10:48:00;101911.56;;;20.87;32.16
70976;BME280;58635;51.198;6.010;2023-05-16T10:50:33;101909.81;;;20.92;32.29
70976;BME280;58635;51.198;6.010;2023-05-16T10:55:43;101915.88;;;21.21;32.51
70976;BME280;58635;51.198;6.010;2023-05-16T10:58:09;101915.50;;;21.29;32.92
70976;BME280;58635;51.198;6.010;2023-05-16T11:00:34;101919.28;;;21.34;32.30
70976;BME280;58635;51.198;6.010;2023-05-16T11:03:21;101919.03;;;21.35;32.09
70976;BME280;58635;51.198;6.010;2023-05-16T11:05:51;101920.94;;;21.40;32.28
70976;BME280;58635;51.198;6.010;2023-05-16T11:08:18;101936.75;;;21.40;32.34
70976;BME280;58635;51.198;6.010;2023-05-16T11:10:43;101925.00;;;21.30;32.66
70976;BME280;58635;51.198;6.010;2023-05-16T11:13:09;101934.75;;;21.18;32.93
70976;BME280;58635;51.198;6.010;2023-05-16T11:15:34;101923.47;;;21.06;33.18
70976;BME280;58635;51.198;6.010;2023-05-16T11:18:12;101932.66;;;21.03;33.25
70976;BME280;58635;51.198;6.010;2023-05-16T11:20:39;101930.88;;;21.21;33.00
70976;BME280;58635;51.198;6.010;2023-05-16T11:23:20;101925.03;;;21.47;32.43
70976;BME280;58635;51.198;6.010;2023-05-16T11:25:51;101922.25;;;21.71;32.02
70976;BME280;58635;51.198;6.010;2023-05-16T11:28:18;101927.25;;;21.89;31.11
70976;BME280;58635;51.198;6.010;2023-05-16T11:30:45;101920.53;;;21.98;30.86
70976;BME280;58635;51.198;6.010;2023-05-16T11:33:11;101920.78;;;22.13;30.67
70976;BME280;58635;51.198;6.010;2023-05-16T11:35:37;101919.47;;;22.33;30.30
70976;BME280;58635;51.198;6.010;2023-05-16T11:38:03;101921.06;;;22.34;30.26
70976;BME280;58635;51.198;6.010;2023-05-16T11:40:29;101917.94;;;22.37;30.11
70976;BME280;58635;51.198;6.010;2023-05-16T11:42:58;101913.91;;;22.51;29.72
70976;BME280;58635;51.198;6.010;2023-05-16T11:45:24;101915.72;;;22.72;29.70
70976;BME280;58635;51.198;6.010;2023-05-16T11:47:50;101917.66;;;22.99;29.25
70976;BME280;58635;51.198;6.010;2023-05-16T11:50:19;101924.75;;;23.25;29.03
70976;BME280;58635;51.198;6.010;2023-05-16T11:52:51;101922.59;;;23.49;28.26
70976;BME280;58635;51.198;6.010;2023-05-16T11:55:19;101921.13;;;23.63;26.96
70976;BME280;58635;51.198;6.010;2023-05-16T11:57:46;101924.44;;;23.49;27.48
70976;BME280;58635;51.198;6.010;2023-05-16T12:00:15;101915.81;;;23.31;27.66
70976;BME280;58635;51.198;6.010;2023-05-16T12:02:43;101911.66;;;23.09;28.16
70976;BME280;58635;51.198;6.010;2023-05-16T12:05:09;101930.66;;;22.84;28.25
70976;BME280;58635;51.198;6.010;2023-05-16T12:07:36;101924.75;;;22.55;28.68
70976;BME280;58635;51.198;6.010;2023-05-16T12:10:09;101934.66;;;22.26;28.92
70976;BME280;58635;51.198;6.010;2023-05-16T12:12:35;101932.69;;;21.99;29.59
70976;BME280;58635;51.198;6.010;2023-05-16T12:15:02;101930.94;;;21.88;29.65
70976;BME280;58635;51.198;6.010;2023-05-16T12:17:28;101923.72;;;22.00;29.56
70976;BME280;58635;51.198;6.010;2023-05-16T12:19:54;101921.41;;;22.21;29.19
70976;BME280;58635;51.198;6.010;2023-05-16T12:22:20;101920.34;;;22.38;29.07
70976;BME280;58635;51.198;6.010;2023-05-16T12:24:45;101924.72;;;22.50;28.69
70976;BME280;58635;51.198;6.010;2023-05-16T12:27:10;101913.78;;;22.63;28.49
70976;BME280;58635;51.198;6.010;2023-05-16T12:29:37;101910.56;;;22.83;28.43
70976;BME280;58635;51.198;6.010;2023-05-16T12:32:02;101906.78;;;22.95;28.29
70976;BME280;58635;51.198;6.010;2023-05-16T12:34:29;101908.53;;;23.12;28.14
70976;BME280;58635;51.198;6.010;2023-05-16T12:36:54;101908.47;;;23.33;27.45
70976;BME280;58635;51.198;6.010;2023-05-16T12:39:21;101908.94;;;23.57;27.74
70976;BME280;58635;51.198;6.010;2023-05-16T12:41:47;101906.69;;;23.76;27.71
70976;BME280;58635;51.198;6.010;2023-05-16T12:44:17;101899.56;;;23.77;26.90
70976;BME280;58635;51.198;6.010;2023-05-16T12:46:49;101900.94;;;23.84;26.33
70976;BME280;58635;51.198;6.010;2023-05-16T12:49:24;101898.91;;;23.97;25.91
70976;BME280;58635;51.198;6.010;2023-05-16T12:51:52;101910.72;;;23.84;26.09
70976;BME280;58635;51.198;6.010;2023-05-16T12:54:17;101914.66;;;23.49;26.20
70976;BME280;58635;51.198;6.010;2023-05-16T12:56:43;101910.34;;;23.38;26.15
70976;BME280;58635;51.198;6.010;2023-05-16T12:59:09;101911.00;;;23.55;26.52
70976;BME280;58635;51.198;6.010;2023-05-16T13:01:36;101910.09;;;23.72;26.27
70976;BME280;58635;51.198;6.010;2023-05-16T13:04:05;101906.94;;;23.70;26.26